sensor_id;sensor_type;location;lat;lon;timestamp;P1;durP1;ratioP1;P2;durP2;ratioP2
69775;SDS011;57049;51.450;-2.516;2022-07-24T00:00:05;8.33;;;3.10;;
69775;SDS011;57049;51.450;-2.516;2022-07-24T00:02:32;12.23;;;3.25;;
69775;SDS011;57049;51.450;-2.516;2022-07-24T00:04:57;12.37;;;3.80;;
69775;SDS011;57049;51.450;-2.516;2022-07-24T00:07:25;9.02;;;3.20;;
69775;SDS011;57049;51.450;-2.516;2022-07-24T00:09:50;12.43;;;3.08;;
69775;SDS011;57049;51.450;-2.516;2022-07-24T00:12:16;9.57;;;3.53;;
69775;SDS011;57049;51.450;-2.516;2022-07-24T00:14:42;8.93;;;3.75;;
69775;SDS011;57049;51.450;-2.516;2022-07-24T00:17:07;10.43;;;3.20;;
69775;SDS011;57049;51.450;-2.516;2022-07-24T00:19:32;11.30;;;3.27;;
69775;SDS011;57049;51.450;-2.516;2022-07-24T00:21:58;14.13;;;3.23;;
69775;SDS011;57049;51.450;-2.516;2022-07-24T00:24:24;12.25;;;3.20;;
69775;SDS011;57049;51.450;-2.516;2022-07-24T00:26:50;12.20;;;3.38;;
69775;SDS011;57049;51.450;-2.516;2022-07-24T00:29:15;15.13;;;3.70;;
69775;SDS011;57049;51.450;-2.516;2022-07-24T00:31:42;9.57;;;3.35;;
69775;SDS011;57049;51.450;-2.516;2022-07-24T00:34:07;9.60;;;3.00;;
69775;SDS011;57049;51.450;-2.516;2022-07-24T00:36:33;9.13;;;3.27;;
69775;SDS011;57049;51.450;-2.516;2022-07-24T00:38:58;10.47;;;3.03;;
69775;SDS011;57049;51.450;-2.516;2022-07-24T00:41:24;11.77;;;3.42;;
69775;SDS011;57049;51.450;-2.516;2022-07-24T00:46:24;12.45;;;3.05;;
69775;SDS011;57049;51.450;-2.516;2022-07-24T00:48:49;12.70;;;3.30;;
69775;SDS011;57049;51.450;-2.516;2022-07-24T00:51:15;10.40;;;2.90;;
69775;SDS011;57049;51.450;-2.516;2022-07-24T00:53:40;11.97;;;3.13;;
69775;SDS011;57049;51.450;-2.516;2022-07-24T00:56:06;11.05;;;3.08;;
69775;SDS011;57049;51.450;-2.516;2022-07-24T00:58:32;8.73;;;2.85;;
69775;SDS011;57049;51.450;-2.516;2022-07-24T01:00:57;6.33;;;2.63;;
69775;SDS011;57049;51.450;-2.516;2022-07-24T01:03:22;11.27;;;3.13;;
69775;SDS011;57049;51.450;-2.516;2022-07-24T01:05:48;6.40;;;2.40;;
69775;SDS011;57049;51.450;-2.516;2022-07-24T01:08:13;10.93;;;3.00;;
69775;SDS011;57049;51.450;-2.516;2022-07-24T01:10:39;10.05;;;2.90;;
69775;SDS011;57049;51.450;-2.516;2022-07-24T01:13:05;9.05;;;2.80;;
69775;SDS011;57049;51.450;-2.516;2022-07-24T01:15:31;11.97;;;2.93;;
69775;SDS011;57049;51.450;-2.516;2022-07-24T01:17:57;14.32;;;3.58;;
69775;SDS011;57049;51.450;-2.516;2022-07-24T01:20:22;9.30;;;2.60;;
69775;SDS011;57049;51.450;-2.516;2022-07-24T01:22:47;9.47;;;2.30;;
69775;SDS011;57049;51.450;-2.516;2022-07-24T01:25:13;10.50;;;2.40;;
69775;SDS011;57049;51.450;-2.516;2022-07-24T01:27:38;6.90;;;2.10;;
69775;SDS011;57049;51.450;-2.516;2022-07-24T01:30:04;7.93;;;2.90;;
69775;SDS011;57049;51.450;-2.516;2022-07-24T01:32:30;10.00;;;2.33;;
69775;SDS011;57049;51.450;-2.516;2022-07-24T01:34:56;8.10;;;2.00;;
69775;SDS011;57049;51.450;-2.516;2022-07-24T01:37:21;8.60;;;1.98;;
69775;SDS011;57049;51.450;-2.516;2022-07-24T01:39:47;8.23;;;3.00;;
69775;SDS011;57049;51.450;-2.516;2022-07-24T01:42:12;8.47;;;2.40;;
69775;SDS011;57049;51.450;-2.516;2022-07-24T01:44:38;11.85;;;2.63;;
69775;SDS011;57049;51.450;-2.516;2022-07-24T01:47:03;8.10;;;2.10;;
69775;SDS011;57049;51.450;-2.516;2022-07-24T01:49:29;10.37;;;2.60;;
69775;SDS011;57049;51.450;-2.516;2022-07-24T01:51:54;8.00;;;2.47;;
69775;SDS011;57049;51.450;-2.516;2022-07-24T01:54:20;11.10;;;2.67;;
69775;SDS011;57049;51.450;-2.516;2022-07-24T01:56:45;9.37;;;2.30;;
69775;SDS011;57049;51.450;-2.516;2022-07-24T01:59:10;8.57;;;2.60;;
69775;SDS011;57049;51.450;-2.516;2022-07-24T02:01:36;11.38;;;2.92;;
69775;SDS011;57049;51.450;-2.516;2022-07-24T02:04:01;9.47;;;3.03;;
69775;SDS011;57049;51.450;-2.516;2022-07-24T02:06:27;10.70;;;3.00;;
69775;SDS011;57049;51.450;-2.516;2022-07-24T02:08:52;7.43;;;2.73;;
69775;SDS011;57049;51.450;-2.516;2022-07-24T02:11:18;8.47;;;2.57;;
69775;SDS011;57049;51.450;-2.516;2022-07-24T02:13:44;11.75;;;2.95;;
69775;SDS011;57049;51.450;-2.516;2022-07-24T02:16:10;10.47;;;3.33;;
69775;SDS011;57049;51.450;-2.516;2022-07-24T02:18:35;12.48;;;3.08;;
69775;SDS011;57049;51.450;-2.516;2022-07-24T02:21:01;13.00;;;3.57;;
69775;SDS011;57049;51.450;-2.516;2022-07-24T02:23:27;9.75;;;3.10;;
69775;SDS011;57049;51.450;-2.516;2022-07-24T02:25:52;12.67;;;3.77;;
69775;SDS011;57049;51.450;-2.516;2022-07-24T02:28:18;12.23;;;3.25;;
69775;SDS011;57049;51.450;-2.516;2022-07-24T02:30:44;11.23;;;3.23;;
69775;SDS011;57049;51.450;-2.516;2022-07-24T02:33:10;11.35;;;3.80;;
69775;SDS011;57049;51.450;-2.516;2022-07-24T02:35:36;11.60;;;4.28;;
69775;SDS011;57049;51.450;-2.516;2022-07-24T02:38:02;10.70;;;3.50;;
69775;SDS011;57049;51.450;-2.516;2022-07-24T02:40:29;9.18;;;3.10;;
69775;SDS011;57049;51.450;-2.516;2022-07-24T02:42:55;13.20;;;3.20;;
69775;SDS011;57049;51.450;-2.516;2022-07-24T02:45:21;11.13;;;3.50;;
69775;SDS011;57049;51.450;-2.516;2022-07-24T02:47:51;11.27;;;3.07;;
69775;SDS011;57049;51.450;-2.516;2022-07-24T02:50:18;13.15;;;3.17;;
69775;SDS011;57049;51.450;-2.516;2022-07-24T02:52:45;17.38;;;3.28;;
69775;SDS011;57049;51.450;-2.516;2022-07-24T02:55:11;9.67;;;3.10;;
69775;SDS011;57049;51.450;-2.516;2022-07-24T02:57:37;9.15;;;2.95;;
69775;SDS011;57049;51.450;-2.516;2022-07-24T03:00:04;13.03;;;2.90;;
69775;SDS011;57049;51.450;-2.516;2022-07-24T03:02:32;11.48;;;3.15;;
69775;SDS011;57049;51.450;-2.516;2022-07-24T03:04:57;10.27;;;3.10;;
69775;SDS011;57049;51.450;-2.516;2022-07-24T03:07:23;9.80;;;2.87;;
69775;SDS011;57049;51.450;-2.516;2022-07-24T03:09:48;15.00;;;3.03;;
69775;SDS011;57049;51.450;-2.516;2022-07-24T03:12:13;8.67;;;2.63;;
69775;SDS011;57049;51.450;-2.516;2022-07-24T03:14:39;13.67;;;2.80;;
69775;SDS011;57049;51.450;-2.516;2022-07-24T03:17:04;9.50;;;2.30;;
69775;SDS011;57049;51.450;-2.516;2022-07-24T03:19:30;13.80;;;3.03;;
69775;SDS011;57049;51.450;-2.516;2022-07-24T03:21:55;10.20;;;2.93;;
69775;SDS011;57049;51.450;-2.516;2022-07-24T03:24:21;11.43;;;3.00;;
69775;SDS011;57049;51.450;-2.516;2022-07-24T03:26:46;8.50;;;3.47;;
69775;SDS011;57049;51.450;-2.516;2022-07-24T03:29:12;9.83;;;2.90;;
69775;SDS011;57049;51.450;-2.516;2022-07-24T03:31:37;10.47;;;2.43;;
69775;SDS011;57049;51.450;-2.516;2022-07-24T03:34:03;9.75;;;2.40;;
69775;SDS011;57049;51.450;-2.516;2022-07-24T03:36:28;9.37;;;2.60;;
69775;SDS011;57049;51.450;-2.516;2022-07-24T03:38:54;8.90;;;2.47;;
69775;SDS011;57049;51.450;-2.516;2022-07-24T03:41:19;11.73;;;2.43;;
69775;SDS011;57049;51.450;-2.516;2022-07-24T03:43:44;11.13;;;2.92;;
69775;SDS011;57049;51.450;-2.516;2022-07-24T03:46:10;9.57;;;2.17;;
69775;SDS011;57049;51.450;-2.516;2022-07-24T03:48:35;7.00;;;1.93;;
69775;SDS011;57049;51.450;-2.516;2022-07-24T03:51:01;7.57;;;2.13;;
69775;SDS011;57049;51.450;-2.516;2022-07-24T03:53:26;9.23;;;2.10;;
69775;SDS011;57049;51.450;-2.516;2022-07-24T03:55:52;10.43;;;2.47;;
69775;SDS011;57049;51.450;-2.516;2022-07-24T03:58:17;8.03;;;2.40;;
69775;SDS011;57049;51.450;-2.516;2022-07-24T04:00:42;9.68;;;2.22;;
69775;SDS011;57049;51.450;-2.516;2022-07-24T04:03:08;12.67;;;2.77;;
69775;SDS011;57049;51.450;-2.516;2022-07-24T04:05:33;9.23;;;2.73;;
69775;SDS011;57049;51.450;-2.516;2022-07-24T04:07:59;9.93;;;3.03;;
69775;SDS011;57049;51.450;-2.516;2022-07-24T04:10:24;9.73;;;2.95;;
69775;SDS011;57049;51.450;-2.516;2022-07-24T04:12:49;9.77;;;2.83;;
69775;SDS011;57049;51.450;-2.516;2022-07-24T04:15:15;12.90;;;3.37;;
69775;SDS011;57049;51.450;-2.516;2022-07-24T04:17:41;11.98;;;2.90;;
69775;SDS011;57049;51.450;-2.516;2022-07-24T04:20:07;12.90;;;3.20;;
69775;SDS011;57049;51.450;-2.516;2022-07-24T04:22:33;9.02;;;2.83;;
69775;SDS011;57049;51.450;-2.516;2022-07-24T04:24:59;11.37;;;2.70;;
69775;SDS011;57049;51.450;-2.516;2022-07-24T04:27:24;11.00;;;3.00;;
69775;SDS011;57049;51.450;-2.516;2022-07-24T04:29:50;9.80;;;3.20;;
69775;SDS011;57049;51.450;-2.516;2022-07-24T04:32:15;13.03;;;3.23;;
69775;SDS011;57049;51.450;-2.516;2022-07-24T04:34:40;10.60;;;3.03;;
69775;SDS011;57049;51.450;-2.516;2022-07-24T04:37:06;9.25;;;3.03;;
69775;SDS011;57049;51.450;-2.516;2022-07-24T04:39:31;11.50;;;3.63;;
69775;SDS011;57049;51.450;-2.516;2022-07-24T04:41:57;11.97;;;3.47;;
69775;SDS011;57049;51.450;-2.516;2022-07-24T04:44:22;12.07;;;3.27;;
69775;SDS011;57049;51.450;-2.516;2022-07-24T04:46:47;11.90;;;3.50;;
69775;SDS011;57049;51.450;-2.516;2022-07-24T04:49:13;14.03;;;3.53;;
69775;SDS011;57049;51.450;-2.516;2022-07-24T04:51:38;9.90;;;3.47;;
69775;SDS011;57049;51.450;-2.516;2022-07-24T04:54:04;12.63;;;3.47;;
69775;SDS011;57049;51.450;-2.516;2022-07-24T04:56:29;11.82;;;3.33;;
69775;SDS011;57049;51.450;-2.516;2022-07-24T04:58:57;13.05;;;3.78;;
69775;SDS011;57049;51.450;-2.516;2022-07-24T05:01:23;13.87;;;3.93;;
69775;SDS011;57049;51.450;-2.516;2022-07-24T05:03:48;11.33;;;3.60;;
69775;SDS011;57049;51.450;-2.516;2022-07-24T05:06:14;14.57;;;4.03;;
69775;SDS011;57049;51.450;-2.516;2022-07-24T05:08:39;13.43;;;3.63;;
69775;SDS011;57049;51.450;-2.516;2022-07-24T05:11:05;11.20;;;3.53;;
69775;SDS011;57049;51.450;-2.516;2022-07-24T05:13:30;12.90;;;3.73;;
69775;SDS011;57049;51.450;-2.516;2022-07-24T05:15:55;13.33;;;3.93;;
69775;SDS011;57049;51.450;-2.516;2022-07-24T05:18:21;11.43;;;3.37;;
69775;SDS011;57049;51.450;-2.516;2022-07-24T05:20:46;10.07;;;3.20;;
69775;SDS011;57049;51.450;-2.516;2022-07-24T05:23:12;12.37;;;3.30;;
69775;SDS011;57049;51.450;-2.516;2022-07-24T05:25:37;11.00;;;3.40;;
69775;SDS011;57049;51.450;-2.516;2022-07-24T05:28:03;10.63;;;3.42;;
69775;SDS011;57049;51.450;-2.516;2022-07-24T05:30:29;10.93;;;3.17;;
69775;SDS011;57049;51.450;-2.516;2022-07-24T05:32:55;15.63;;;3.50;;
69775;SDS011;57049;51.450;-2.516;2022-07-24T05:35:20;9.70;;;3.27;;
69775;SDS011;57049;51.450;-2.516;2022-07-24T05:37:46;12.25;;;3.35;;
69775;SDS011;57049;51.450;-2.516;2022-07-24T05:40:11;9.70;;;2.70;;
69775;SDS011;57049;51.450;-2.516;2022-07-24T05:42:37;14.65;;;3.08;;
69775;SDS011;57049;51.450;-2.516;2022-07-24T05:45:03;12.97;;;3.10;;
69775;SDS011;57049;51.450;-2.516;2022-07-24T05:47:34;11.52;;;3.40;;
69775;SDS011;57049;51.450;-2.516;2022-07-24T05:50:00;10.60;;;3.17;;
69775;SDS011;57049;51.450;-2.516;2022-07-24T05:52:26;12.73;;;3.22;;
69775;SDS011;57049;51.450;-2.516;2022-07-24T05:54:51;11.70;;;3.20;;
69775;SDS011;57049;51.450;-2.516;2022-07-24T05:57:16;8.43;;;3.10;;
69775;SDS011;57049;51.450;-2.516;2022-07-24T05:59:42;11.23;;;3.00;;
69775;SDS011;57049;51.450;-2.516;2022-07-24T06:02:07;11.27;;;3.03;;
69775;SDS011;57049;51.450;-2.516;2022-07-24T06:04:32;12.57;;;3.03;;
69775;SDS011;57049;51.450;-2.516;2022-07-24T06:07:00;11.03;;;3.10;;
69775;SDS011;57049;51.450;-2.516;2022-07-24T06:09:26;12.43;;;3.78;;
69775;SDS011;57049;51.450;-2.516;2022-07-24T06:11:51;11.83;;;4.00;;
69775;SDS011;57049;51.450;-2.516;2022-07-24T06:14:16;13.67;;;3.23;;
69775;SDS011;57049;51.450;-2.516;2022-07-24T06:16:42;14.68;;;3.88;;
69775;SDS011;57049;51.450;-2.516;2022-07-24T06:19:07;13.40;;;3.80;;
69775;SDS011;57049;51.450;-2.516;2022-07-24T06:21:33;12.83;;;3.97;;
69775;SDS011;57049;51.450;-2.516;2022-07-24T06:23:58;9.67;;;3.43;;
69775;SDS011;57049;51.450;-2.516;2022-07-24T06:26:24;12.50;;;3.77;;
69775;SDS011;57049;51.450;-2.516;2022-07-24T06:28:49;16.60;;;3.78;;
69775;SDS011;57049;51.450;-2.516;2022-07-24T06:31:14;13.67;;;3.80;;
69775;SDS011;57049;51.450;-2.516;2022-07-24T06:33:40;12.60;;;3.43;;
69775;SDS011;57049;51.450;-2.516;2022-07-24T06:36:05;13.17;;;3.17;;
69775;SDS011;57049;51.450;-2.516;2022-07-24T06:38:31;11.60;;;3.50;;
69775;SDS011;57049;51.450;-2.516;2022-07-24T06:40:57;10.43;;;3.50;;
69775;SDS011;57049;51.450;-2.516;2022-07-24T06:43:22;12.20;;;3.13;;
69775;SDS011;57049;51.450;-2.516;2022-07-24T06:45:47;14.70;;;3.23;;
69775;SDS011;57049;51.450;-2.516;2022-07-24T06:48:13;14.40;;;3.83;;
69775;SDS011;57049;51.450;-2.516;2022-07-24T06:50:38;10.77;;;3.10;;
69775;SDS011;57049;51.450;-2.516;2022-07-24T06:53:04;9.30;;;2.60;;
69775;SDS011;57049;51.450;-2.516;2022-07-24T06:55:29;12.63;;;3.20;;
69775;SDS011;57049;51.450;-2.516;2022-07-24T06:57:55;10.37;;;3.30;;
69775;SDS011;57049;51.450;-2.516;2022-07-24T07:00:20;10.10;;;2.33;;
69775;SDS011;57049;51.450;-2.516;2022-07-24T07:02:46;6.70;;;2.38;;
69775;SDS011;57049;51.450;-2.516;2022-07-24T07:05:12;9.45;;;2.53;;
69775;SDS011;57049;51.450;-2.516;2022-07-24T07:07:37;14.37;;;2.80;;
69775;SDS011;57049;51.450;-2.516;2022-07-24T07:10:04;10.20;;;2.77;;
69775;SDS011;57049;51.450;-2.516;2022-07-24T07:12:30;9.07;;;2.10;;
69775;SDS011;57049;51.450;-2.516;2022-07-24T07:14:56;9.57;;;2.60;;
69775;SDS011;57049;51.450;-2.516;2022-07-24T07:17:23;8.50;;;2.37;;
69775;SDS011;57049;51.450;-2.516;2022-07-24T07:19:48;7.03;;;2.25;;
69775;SDS011;57049;51.450;-2.516;2022-07-24T07:22:14;8.43;;;2.60;;
69775;SDS011;57049;51.450;-2.516;2022-07-24T07:24:39;8.40;;;2.43;;
69775;SDS011;57049;51.450;-2.516;2022-07-24T07:27:05;7.43;;;2.13;;
69775;SDS011;57049;51.450;-2.516;2022-07-24T07:29:30;12.05;;;2.40;;
69775;SDS011;57049;51.450;-2.516;2022-07-24T07:31:56;8.30;;;2.40;;
69775;SDS011;57049;51.450;-2.516;2022-07-24T07:34:21;8.87;;;2.47;;
69775;SDS011;57049;51.450;-2.516;2022-07-24T07:36:46;6.93;;;2.03;;
69775;SDS011;57049;51.450;-2.516;2022-07-24T07:39:12;8.18;;;2.03;;
69775;SDS011;57049;51.450;-2.516;2022-07-24T07:41:37;10.23;;;2.40;;
69775;SDS011;57049;51.450;-2.516;2022-07-24T07:44:03;7.63;;;2.13;;
69775;SDS011;57049;51.450;-2.516;2022-07-24T07:46:29;9.25;;;1.95;;
69775;SDS011;57049;51.450;-2.516;2022-07-24T07:48:55;9.40;;;2.13;;
69775;SDS011;57049;51.450;-2.516;2022-07-24T07:51:20;9.80;;;2.20;;
69775;SDS011;57049;51.450;-2.516;2022-07-24T07:53:46;10.40;;;2.23;;
69775;SDS011;57049;51.450;-2.516;2022-07-24T07:56:11;8.00;;;2.03;;
69775;SDS011;57049;51.450;-2.516;2022-07-24T07:58:37;10.10;;;2.60;;
69775;SDS011;57049;51.450;-2.516;2022-07-24T08:01:02;6.13;;;2.10;;
69775;SDS011;57049;51.450;-2.516;2022-07-24T08:03:28;7.10;;;2.50;;
69775;SDS011;57049;51.450;-2.516;2022-07-24T08:05:53;6.67;;;2.20;;
69775;SDS011;57049;51.450;-2.516;2022-07-24T08:08:19;7.70;;;2.33;;
69775;SDS011;57049;51.450;-2.516;2022-07-24T08:10:44;7.97;;;2.33;;
69775;SDS011;57049;51.450;-2.516;2022-07-24T08:13:10;9.93;;;2.40;;
69775;SDS011;57049;51.450;-2.516;2022-07-24T08:15:37;8.70;;;1.70;;
69775;SDS011;57049;51.450;-2.516;2022-07-24T08:18:03;9.05;;;2.25;;
69775;SDS011;57049;51.450;-2.516;2022-07-24T08:20:28;6.73;;;2.20;;
69775;SDS011;57049;51.450;-2.516;2022-07-24T08:22:54;6.83;;;2.10;;
69775;SDS011;57049;51.450;-2.516;2022-07-24T08:25:19;12.98;;;2.08;;
69775;SDS011;57049;51.450;-2.516;2022-07-24T08:27:45;8.70;;;2.23;;
69775;SDS011;57049;51.450;-2.516;2022-07-24T08:30:11;8.73;;;2.08;;
69775;SDS011;57049;51.450;-2.516;2022-07-24T08:32:36;8.20;;;2.27;;
69775;SDS011;57049;51.450;-2.516;2022-07-24T08:35:03;10.07;;;2.17;;
69775;SDS011;57049;51.450;-2.516;2022-07-24T08:37:29;10.35;;;2.10;;
69775;SDS011;57049;51.450;-2.516;2022-07-24T08:39:55;11.67;;;2.37;;
69775;SDS011;57049;51.450;-2.516;2022-07-24T08:42:21;7.20;;;1.92;;
69775;SDS011;57049;51.450;-2.516;2022-07-24T08:44:46;9.07;;;2.57;;
69775;SDS011;57049;51.450;-2.516;2022-07-24T08:47:12;10.13;;;2.50;;
69775;SDS011;57049;51.450;-2.516;2022-07-24T08:49:40;12.68;;;2.50;;
69775;SDS011;57049;51.450;-2.516;2022-07-24T08:52:06;7.88;;;2.10;;
69775;SDS011;57049;51.450;-2.516;2022-07-24T08:54:35;9.25;;;2.00;;
69775;SDS011;57049;51.450;-2.516;2022-07-24T08:57:01;9.13;;;2.70;;
69775;SDS011;57049;51.450;-2.516;2022-07-24T08:59:27;8.95;;;1.77;;
69775;SDS011;57049;51.450;-2.516;2022-07-24T09:01:53;9.83;;;2.40;;
69775;SDS011;57049;51.450;-2.516;2022-07-24T09:04:35;10.15;;;2.35;;
69775;SDS011;57049;51.450;-2.516;2022-07-24T09:07:01;8.32;;;2.42;;
69775;SDS011;57049;51.450;-2.516;2022-07-24T09:09:29;8.15;;;1.85;;
69775;SDS011;57049;51.450;-2.516;2022-07-24T09:12:02;7.43;;;2.00;;
69775;SDS011;57049;51.450;-2.516;2022-07-24T09:14:41;6.72;;;1.77;;
69775;SDS011;57049;51.450;-2.516;2022-07-24T09:17:13;8.82;;;2.28;;
69775;SDS011;57049;51.450;-2.516;2022-07-24T09:19:48;10.10;;;2.00;;
69775;SDS011;57049;51.450;-2.516;2022-07-24T09:22:31;8.57;;;2.17;;
69775;SDS011;57049;51.450;-2.516;2022-07-24T09:27:38;6.80;;;1.83;;
69775;SDS011;57049;51.450;-2.516;2022-07-24T09:32:54;7.65;;;2.30;;
69775;SDS011;57049;51.450;-2.516;2022-07-24T09:35:23;9.13;;;2.20;;
69775;SDS011;57049;51.450;-2.516;2022-07-24T09:37:59;6.20;;;1.77;;
69775;SDS011;57049;51.450;-2.516;2022-07-24T09:40:32;7.55;;;2.33;;
69775;SDS011;57049;51.450;-2.516;2022-07-24T09:45:51;6.47;;;2.10;;
69775;SDS011;57049;51.450;-2.516;2022-07-24T09:48:21;6.10;;;1.97;;
69775;SDS011;57049;51.450;-2.516;2022-07-24T09:50:49;11.00;;;2.33;;
69775;SDS011;57049;51.450;-2.516;2022-07-24T09:53:19;8.88;;;2.35;;
69775;SDS011;57049;51.450;-2.516;2022-07-24T09:58:38;8.20;;;2.00;;
69775;SDS011;57049;51.450;-2.516;2022-07-24T10:01:06;6.40;;;1.87;;
69775;SDS011;57049;51.450;-2.516;2022-07-24T10:03:34;8.23;;;2.05;;
69775;SDS011;57049;51.450;-2.516;2022-07-24T10:06:01;7.18;;;1.83;;
69775;SDS011;57049;51.450;-2.516;2022-07-24T10:08:29;8.93;;;2.05;;
69775;SDS011;57049;51.450;-2.516;2022-07-24T10:10:56;7.78;;;1.90;;
69775;SDS011;57049;51.450;-2.516;2022-07-24T10:13:22;9.07;;;2.00;;
69775;SDS011;57049;51.450;-2.516;2022-07-24T10:18:51;8.65;;;2.25;;
69775;SDS011;57049;51.450;-2.516;2022-07-24T10:21:28;7.70;;;1.98;;
69775;SDS011;57049;51.450;-2.516;2022-07-24T10:24:05;5.15;;;1.75;;
69775;SDS011;57049;51.450;-2.516;2022-07-24T10:27:02;6.67;;;1.67;;
69775;SDS011;57049;51.450;-2.516;2022-07-24T10:29:29;7.35;;;1.80;;
69775;SDS011;57049;51.450;-2.516;2022-07-24T10:31:59;7.90;;;2.08;;
69775;SDS011;57049;51.450;-2.516;2022-07-24T10:37:52;7.70;;;1.53;;
69775;SDS011;57049;51.450;-2.516;2022-07-24T10:43:14;5.85;;;1.50;;
69775;SDS011;57049;51.450;-2.516;2022-07-24T10:45:43;6.45;;;1.70;;
69775;SDS011;57049;51.450;-2.516;2022-07-24T10:58:50;7.20;;;1.75;;
69775;SDS011;57049;51.450;-2.516;2022-07-24T11:06:49;5.03;;;1.80;;
69775;SDS011;57049;51.450;-2.516;2022-07-24T11:09:15;6.38;;;1.50;;
69775;SDS011;57049;51.450;-2.516;2022-07-24T11:14:17;7.68;;;1.77;;
69775;SDS011;57049;51.450;-2.516;2022-07-24T11:17:08;6.10;;;1.50;;
69775;SDS011;57049;51.450;-2.516;2022-07-24T11:20:09;9.52;;;2.28;;
69775;SDS011;57049;51.450;-2.516;2022-07-24T11:22:44;6.05;;;2.03;;
69775;SDS011;57049;51.450;-2.516;2022-07-24T11:25:12;5.47;;;1.50;;
69775;SDS011;57049;51.450;-2.516;2022-07-24T11:27:43;8.05;;;1.75;;
69775;SDS011;57049;51.450;-2.516;2022-07-24T11:30:23;6.80;;;1.87;;
69775;SDS011;57049;51.450;-2.516;2022-07-24T11:32:50;5.97;;;1.90;;
69775;SDS011;57049;51.450;-2.516;2022-07-24T11:35:16;7.35;;;2.03;;
69775;SDS011;57049;51.450;-2.516;2022-07-24T11:37:42;8.32;;;2.35;;
69775;SDS011;57049;51.450;-2.516;2022-07-24T11:40:11;6.07;;;2.00;;
69775;SDS011;57049;51.450;-2.516;2022-07-24T11:42:39;7.93;;;2.42;;
69775;SDS011;57049;51.450;-2.516;2022-07-24T11:45:04;6.43;;;2.10;;
69775;SDS011;57049;51.450;-2.516;2022-07-24T11:47:30;6.80;;;2.42;;
69775;SDS011;57049;51.450;-2.516;2022-07-24T11:50:00;9.37;;;2.60;;
69775;SDS011;57049;51.450;-2.516;2022-07-24T11:52:35;8.93;;;2.20;;
69775;SDS011;57049;51.450;-2.516;2022-07-24T11:55:07;8.70;;;2.63;;
69775;SDS011;57049;51.450;-2.516;2022-07-24T11:57:38;10.20;;;2.63;;
69775;SDS011;57049;51.450;-2.516;2022-07-24T12:00:06;8.60;;;2.72;;
69775;SDS011;57049;51.450;-2.516;2022-07-24T12:02:35;8.07;;;2.47;;
69775;SDS011;57049;51.450;-2.516;2022-07-24T12:05:01;9.70;;;2.10;;
69775;SDS011;57049;51.450;-2.516;2022-07-24T12:07:26;9.27;;;2.00;;
69775;SDS011;57049;51.450;-2.516;2022-07-24T12:09:58;7.80;;;2.10;;
69775;SDS011;57049;51.450;-2.516;2022-07-24T12:12:26;8.38;;;1.98;;
69775;SDS011;57049;51.450;-2.516;2022-07-24T12:14:53;7.97;;;2.40;;
69775;SDS011;57049;51.450;-2.516;2022-07-24T12:17:26;7.78;;;2.08;;
69775;SDS011;57049;51.450;-2.516;2022-07-24T12:19:53;8.83;;;1.63;;
69775;SDS011;57049;51.450;-2.516;2022-07-24T12:22:21;9.13;;;2.15;;
69775;SDS011;57049;51.450;-2.516;2022-07-24T12:24:49;5.18;;;1.48;;
69775;SDS011;57049;51.450;-2.516;2022-07-24T12:30:00;8.00;;;1.63;;
69775;SDS011;57049;51.450;-2.516;2022-07-24T12:32:26;6.30;;;2.00;;
69775;SDS011;57049;51.450;-2.516;2022-07-24T12:34:51;6.43;;;1.83;;
69775;SDS011;57049;51.450;-2.516;2022-07-24T12:37:18;5.78;;;1.50;;
69775;SDS011;57049;51.450;-2.516;2022-07-24T12:39:45;9.05;;;1.90;;
69775;SDS011;57049;51.450;-2.516;2022-07-24T12:42:15;7.87;;;1.90;;
69775;SDS011;57049;51.450;-2.516;2022-07-24T12:44:42;8.32;;;1.90;;
69775;SDS011;57049;51.450;-2.516;2022-07-24T12:47:10;5.15;;;1.52;;
69775;SDS011;57049;51.450;-2.516;2022-07-24T12:49:42;7.10;;;1.60;;
69775;SDS011;57049;51.450;-2.516;2022-07-24T12:52:22;7.50;;;1.95;;
69775;SDS011;57049;51.450;-2.516;2022-07-24T12:54:49;7.60;;;1.97;;
69775;SDS011;57049;51.450;-2.516;2022-07-24T12:57:16;6.78;;;1.70;;
69775;SDS011;57049;51.450;-2.516;2022-07-24T12:59:46;4.88;;;1.70;;
69775;SDS011;57049;51.450;-2.516;2022-07-24T13:04:44;6.15;;;1.65;;
69775;SDS011;57049;51.450;-2.516;2022-07-24T13:07:15;5.83;;;1.97;;
69775;SDS011;57049;51.450;-2.516;2022-07-24T13:09:41;6.18;;;1.60;;
69775;SDS011;57049;51.450;-2.516;2022-07-24T13:12:08;6.82;;;1.60;;
69775;SDS011;57049;51.450;-2.516;2022-07-24T13:14:34;6.00;;;1.70;;
69775;SDS011;57049;51.450;-2.516;2022-07-24T13:17:07;9.15;;;1.67;;
69775;SDS011;57049;51.450;-2.516;2022-07-24T13:19:35;6.57;;;1.70;;
69775;SDS011;57049;51.450;-2.516;2022-07-24T13:22:06;6.75;;;2.17;;
69775;SDS011;57049;51.450;-2.516;2022-07-24T13:24:31;6.47;;;1.67;;
69775;SDS011;57049;51.450;-2.516;2022-07-24T13:27:02;5.83;;;1.67;;
69775;SDS011;57049;51.450;-2.516;2022-07-24T13:29:29;7.57;;;1.70;;
69775;SDS011;57049;51.450;-2.516;2022-07-24T13:31:54;5.90;;;1.80;;
69775;SDS011;57049;51.450;-2.516;2022-07-24T13:34:20;8.35;;;1.85;;
69775;SDS011;57049;51.450;-2.516;2022-07-24T13:36:45;8.60;;;1.80;;
69775;SDS011;57049;51.450;-2.516;2022-07-24T13:39:11;6.25;;;2.05;;
69775;SDS011;57049;51.450;-2.516;2022-07-24T13:41:37;5.97;;;2.42;;
69775;SDS011;57049;51.450;-2.516;2022-07-24T13:44:04;6.33;;;1.70;;
69775;SDS011;57049;51.450;-2.516;2022-07-24T13:46:30;7.25;;;1.83;;
69775;SDS011;57049;51.450;-2.516;2022-07-24T13:48:56;7.53;;;1.90;;
69775;SDS011;57049;51.450;-2.516;2022-07-24T13:51:22;4.85;;;1.73;;
69775;SDS011;57049;51.450;-2.516;2022-07-24T13:53:48;7.67;;;1.80;;
69775;SDS011;57049;51.450;-2.516;2022-07-24T13:56:14;8.43;;;1.60;;
69775;SDS011;57049;51.450;-2.516;2022-07-24T13:58:39;8.83;;;2.00;;
69775;SDS011;57049;51.450;-2.516;2022-07-24T14:01:07;7.07;;;1.60;;
69775;SDS011;57049;51.450;-2.516;2022-07-24T14:03:33;6.55;;;1.77;;
69775;SDS011;57049;51.450;-2.516;2022-07-24T14:05:59;7.20;;;1.70;;
69775;SDS011;57049;51.450;-2.516;2022-07-24T14:08:26;10.30;;;2.20;;
69775;SDS011;57049;51.450;-2.516;2022-07-24T14:10:53;6.65;;;1.80;;
69775;SDS011;57049;51.450;-2.516;2022-07-24T14:13:18;6.30;;;1.73;;
69775;SDS011;57049;51.450;-2.516;2022-07-24T14:15:45;7.03;;;1.60;;
69775;SDS011;57049;51.450;-2.516;2022-07-24T14:18:11;6.20;;;1.90;;
69775;SDS011;57049;51.450;-2.516;2022-07-24T14:20:37;5.70;;;1.50;;
69775;SDS011;57049;51.450;-2.516;2022-07-24T14:23:02;6.33;;;1.60;;
69775;SDS011;57049;51.450;-2.516;2022-07-24T14:25:28;7.50;;;1.50;;
69775;SDS011;57049;51.450;-2.516;2022-07-24T14:27:53;8.30;;;1.50;;
69775;SDS011;57049;51.450;-2.516;2022-07-24T14:30:19;5.93;;;1.63;;
69775;SDS011;57049;51.450;-2.516;2022-07-24T14:32:44;11.70;;;2.30;;
69775;SDS011;57049;51.450;-2.516;2022-07-24T14:35:10;6.72;;;1.88;;
69775;SDS011;57049;51.450;-2.516;2022-07-24T14:37:35;6.73;;;1.70;;
69775;SDS011;57049;51.450;-2.516;2022-07-24T14:40:02;6.05;;;1.58;;
69775;SDS011;57049;51.450;-2.516;2022-07-24T14:42:30;6.93;;;1.85;;
69775;SDS011;57049;51.450;-2.516;2022-07-24T14:44:55;6.83;;;1.70;;
69775;SDS011;57049;51.450;-2.516;2022-07-24T14:47:21;6.50;;;1.93;;
69775;SDS011;57049;51.450;-2.516;2022-07-24T14:49:46;7.53;;;1.80;;
69775;SDS011;57049;51.450;-2.516;2022-07-24T14:52:12;7.83;;;2.03;;
69775;SDS011;57049;51.450;-2.516;2022-07-24T14:54:38;6.07;;;1.45;;
69775;SDS011;57049;51.450;-2.516;2022-07-24T14:57:04;6.47;;;1.60;;
69775;SDS011;57049;51.450;-2.516;2022-07-24T14:59:29;6.57;;;1.50;;
69775;SDS011;57049;51.450;-2.516;2022-07-24T15:01:55;7.50;;;1.43;;
69775;SDS011;57049;51.450;-2.516;2022-07-24T15:04:20;6.47;;;1.90;;
69775;SDS011;57049;51.450;-2.516;2022-07-24T15:06:46;6.77;;;1.90;;
69775;SDS011;57049;51.450;-2.516;2022-07-24T15:09:11;8.77;;;2.47;;
69775;SDS011;57049;51.450;-2.516;2022-07-24T15:11:37;7.63;;;1.90;;